Time;durP1;ratioP1;P1;durP2;ratioP2;P2;SDS_P1;SDS_P2;PMS_P1;PMS_P2;Temp;Humidity;BMP_temperature;BMP_pressure;BME280_temperature;BME280_humidity;BME280_pressure;Samples;Min_cycle;Max_cycle;Signal;HPM_P1;HPM_P2
2021/12/10 00:01:21;;;;;;;5.05;1.50;;;;;;;20.06;31.68;99587.47;7312919;19;130586;-60
2021/12/10 00:03:52;;;;;;;4.00;1.50;;;;;;;20.01;31.98;99584.72;7312877;19;130521;-60
2021/12/10 00:06:35;;;;;;;2.67;1.40;;;;;;;19.98;31.73;99570.25;7314943;19;129033;-60
2021/12/10 00:09:19;;;;;;;4.72;1.40;;;;;;;19.96;31.50;99561.38;7311753;19;130947;-60
2021/12/10 00:11:58;;;;;;;3.97;1.30;;;;;;;19.94;31.76;99546.97;7313550;19;131323;-60
2021/12/10 00:14:27;;;;;;;4.22;1.40;;;;;;;19.92;31.43;99538.13;7311544;19;131039;-60
2021/12/10 00:16:54;;;;;;;3.75;1.55;;;;;;;19.90;31.92;99534.81;7312342;19;129402;-60
2021/12/10 00:21:49;;;;;;;4.25;1.20;;;;;;;19.86;31.87;99522.59;7311705;19;131429;-60
2021/12/10 00:24:17;;;;;;;3.38;1.42;;;;;;;19.84;31.55;99519.28;7314509;19;130596;-60
2021/12/10 00:26:45;;;;;;;3.80;1.60;;;;;;;19.81;31.64;99517.13;7312196;19;130575;-60
2021/12/10 00:29:13;;;;;;;4.57;1.83;;;;;;;19.78;31.53;99510.16;7314962;19;129136;-60
2021/12/10 00:31:49;;;;;;;4.18;1.27;;;;;;;19.77;31.83;99493.81;7310570;19;130546;-60
2021/12/10 00:34:36;;;;;;;3.63;1.60;;;;;;;19.75;31.83;99493.28;7313823;19;130570;-60
2021/12/10 00:37:07;;;;;;;4.38;1.55;;;;;;;19.73;31.99;99492.75;7313218;19;128748;-60
2021/12/10 00:39:38;;;;;;;4.07;1.50;;;;;;;19.68;31.88;99482.50;7311862;19;130547;-60
2021/12/10 00:42:07;;;;;;;2.78;1.42;;;;;;;19.67;31.42;99475.28;7313028;19;130797;-60
2021/12/10 00:44:34;;;;;;;3.28;1.42;;;;;;;19.65;31.73;99460.88;7312544;19;135077;-60
2021/12/10 00:47:02;;;;;;;4.43;1.60;;;;;;;19.63;31.71;99465.91;7320585;19;128900;-60
2021/12/10 00:49:29;;;;;;;4.68;1.70;;;;;;;19.61;31.46;99444.00;7316451;19;129079;-60
2021/12/10 00:51:55;;;;;;;3.58;1.50;;;;;;;19.58;31.57;99439.00;7319640;19;130367;-60
2021/12/10 00:54:22;;;;;;;3.15;1.30;;;;;;;19.56;31.35;99430.19;7317405;19;130689;-60
2021/12/10 00:56:49;;;;;;;4.57;1.33;;;;;;;19.55;31.37;99416.56;7319034;19;130293;-60
2021/12/10 00:59:19;;;;;;;4.00;1.50;;;;;;;19.52;31.48;99406.91;7320748;19;129046;-60
2021/12/10 01:01:48;;;;;;;4.85;1.45;;;;;;;19.52;31.39;99406.91;7317554;19;130737;-60
2021/12/10 01:04:26;;;;;;;3.90;1.35;;;;;;;19.49;31.33;99401.94;7320016;19;130488;-60
2021/12/10 01:06:55;;;;;;;3.78;1.40;;;;;;;19.48;30.99;99405.81;7316895;19;130531;-60
2021/12/10 01:09:26;;;;;;;5.25;1.65;;;;;;;19.47;31.51;99393.91;7320083;19;128818;-60
2021/12/10 01:12:11;;;;;;;3.20;1.35;;;;;;;19.47;31.06;99379.19;7317369;19;130677;-60
2021/12/10 01:26:24;;;;;;;3.97;1.67;;;;;;;19.33;31.30;99349.34;7319602;19;131380;-60
2021/12/10 01:28:51;;;;;;;5.65;1.63;;;;;;;19.32;31.13;99353.22;7316546;19;128891;-60
2021/12/10 01:31:18;;;;;;;3.60;1.50;;;;;;;19.31;30.94;99346.06;7320207;19;128847;-60
2021/12/10 01:33:46;;;;;;;3.63;1.30;;;;;;;19.29;31.28;99345.53;7314868;19;130538;-60
2021/12/10 01:36:13;;;;;;;3.03;1.20;;;;;;;19.28;31.14;99332.78;7316456;19;130578;-61
2021/12/10 01:38:43;;;;;;;5.75;1.48;;;;;;;19.28;31.21;99330.00;7315297;19;129236;-60
2021/12/10 01:41:16;;;;;;;2.95;1.40;;;;;;;19.25;31.21;99321.44;7317823;19;128848;-60
2021/12/10 01:43:47;;;;;;;4.25;1.38;;;;;;;19.24;30.60;99314.22;7318995;19;130777;-60
2021/12/10 01:46:26;;;;;;;4.68;1.52;;;;;;;19.23;31.18;99310.63;7316610;19;130361;-60
2021/12/10 01:48:57;;;;;;;3.13;1.27;;;;;;;19.21;30.97;99301.75;7318931;19;130684;-60
2021/12/10 01:51:29;;;;;;;1.80;1.00;;;;;;;19.19;30.83;99290.94;7316425;19;129180;-60
2021/12/10 01:54:01;;;;;;;2.75;1.20;;;;;;;19.19;30.84;99287.34;7319638;19;130725;-60
2021/12/10 01:56:30;;;;;;;2.17;1.08;;;;;;;19.16;31.16;99288.75;7313390;19;131449;-60
2021/12/10 01:58:59;;;;;;;4.72;1.27;;;;;;;19.15;30.97;99275.19;7317216;19;129192;-59
2021/12/10 02:01:33;;;;;;;3.92;1.27;;;;;;;19.16;30.92;99276.84;7318167;19;129286;-60
2021/12/10 02:04:05;;;;;;;3.75;1.30;;;;;;;19.14;30.62;99279.06;7315789;19;130505;-60
2021/12/10 02:06:31;;;;;;;4.03;1.20;;;;;;;19.12;30.78;99275.75;7318353;19;130617;-60
2021/12/10 02:08:58;;;;;;;3.05;1.25;;;;;;;19.10;30.82;99266.91;7314950;19;128864;-60
2021/12/10 02:11:25;;;;;;;3.00;1.10;;;;;;;19.08;30.89;99268.00;7317988;19;128982;-59
2021/12/10 02:13:52;;;;;;;4.28;1.30;;;;;;;19.08;31.07;99258.88;7315534;19;131229;-60
2021/12/10 02:16:19;;;;;;;2.08;1.23;;;;;;;19.07;30.42;99262.75;7315916;19;131440;-60
2021/12/10 02:18:48;;;;;;;4.10;1.60;;;;;;;19.06;30.82;99261.09;7316280;19;129538;-60
2021/12/10 02:21:21;;;;;;;5.47;1.83;;;;;;;19.06;31.04;99256.41;7316716;19;129634;-58
2021/12/10 02:23:57;;;;;;;1.98;0.82;;;;;;;19.06;30.42;99244.47;7317159;19;131288;-60
2021/12/10 02:26:31;;;;;;;3.33;1.13;;;;;;;19.04;30.38;99236.47;7315096;19;130535;-60
2021/12/10 02:29:00;;;;;;;4.88;1.52;;;;;;;19.04;30.49;99230.06;7317947;19;129853;-60
2021/12/10 02:31:27;;;;;;;6.40;1.30;;;;;;;19.01;30.35;99223.19;7314332;19;130250;-60
2021/12/10 02:33:55;;;;;;;5.22;1.48;;;;;;;19.00;30.42;99213.22;7316234;19;130506;-60
2021/12/10 02:36:26;;;;;;;2.75;1.40;;;;;;;18.99;30.65;99203.25;7314371;19;130636;-60
2021/12/10 02:38:55;;;;;;;2.80;1.15;;;;;;;18.99;30.50;99196.88;7316107;19;129081;-60
2021/12/10 02:41:26;;;;;;;4.95;1.27;;;;;;;18.98;30.40;99193.28;7317124;19;128954;-60
2021/12/10 02:43:53;;;;;;;5.35;1.27;;;;;;;18.97;30.65;99194.38;7313453;19;130719;-60
2021/12/10 02:46:20;;;;;;;4.25;1.17;;;;;;;18.97;30.72;99190.81;7317132;19;130707;-60
2021/12/10 02:48:48;;;;;;;3.17;1.20;;;;;;;18.94;30.35;99178.38;7314536;19;130041;-60
2021/12/10 02:51:15;;;;;;;3.13;1.20;;;;;;;18.94;30.31;99171.97;7317073;19;128960;-60
2021/12/10 02:53:46;;;;;;;2.08;1.23;;;;;;;18.94;30.42;99170.06;7314595;19;130504;-60
2021/12/10 02:56:16;;;;;;;4.05;1.30;;;;;;;18.91;30.28;99167.84;7314714;19;131461;-60
2021/12/10 02:58:45;;;;;;;4.22;1.20;;;;;;;18.90;30.64;99155.13;7312583;19;129003;-60
2021/12/10 03:01:23;;;;;;;3.88;1.10;;;;;;;18.89;30.53;99150.69;7314053;19;129044;-59
2021/12/10 03:03:50;;;;;;;2.40;0.98;;;;;;;18.87;30.66;99151.00;7317393;19;130596;-60
2021/12/10 03:06:18;;;;;;;4.32;1.23;;;;;;;18.86;30.52;99146.56;7313261;19;130786;-60
2021/12/10 03:08:49;;;;;;;5.10;1.52;;;;;;;18.85;30.61;99144.06;7312640;19;128747;-60
2021/12/10 03:11:34;;;;;;;2.67;1.05;;;;;;;18.85;30.31;99138.53;7313079;19;129091;-60
2021/12/10 03:14:06;;;;;;;2.15;0.88;;;;;;;18.84;30.18;99142.41;7314749;19;130474;-60
2021/12/10 03:16:34;;;;;;;2.35;1.30;;;;;;;18.82;30.40;99133.59;7313959;19;130526;-60
2021/12/10 03:19:01;;;;;;;2.75;0.85;;;;;;;18.81;30.38;99126.41;7311250;19;129407;-60
2021/12/10 03:21:28;;;;;;;2.60;1.00;;;;;;;18.82;30.33;99122.50;7316420;19;129020;-60
2021/12/10 03:23:55;;;;;;;3.25;1.05;;;;;;;18.80;30.63;99119.19;7313070;19;131311;-60
2021/12/10 03:26:22;;;;;;;2.45;1.00;;;;;;;18.79;30.59;99112.81;7314671;19;130574;-60
2021/12/10 03:28:51;;;;;;;2.85;1.08;;;;;;;18.78;30.26;99108.38;7310802;19;129140;-60
2021/12/10 03:31:20;;;;;;;3.17;1.10;;;;;;;18.77;30.43;99104.81;7315445;19;128892;-60
2021/12/10 03:33:49;;;;;;;3.20;0.90;;;;;;;18.76;30.31;99092.06;7312516;19;131326;-60
2021/12/10 03:36:16;;;;;;;2.80;1.08;;;;;;;18.74;30.43;99083.22;7313138;19;130769;-60
2021/12/10 03:38:43;;;;;;;4.25;1.35;;;;;;;18.74;30.43;99071.34;7314221;19;128937;-60
2021/12/10 03:41:11;;;;;;;2.42;0.93;;;;;;;18.74;30.49;99068.56;7312883;19;128953;-60
2021/12/10 03:43:39;;;;;;;1.17;0.70;;;;;;;18.73;30.01;99069.69;7315039;19;131729;-60
2021/12/10 03:46:07;;;;;;;3.88;1.20;;;;;;;18.72;30.06;99065.25;7311376;19;131240;-60
2021/12/10 03:48:42;;;;;;;2.47;1.05;;;;;;;18.71;30.51;99056.09;7313565;19;128925;-60
2021/12/10 03:51:14;;;;;;;2.35;0.80;;;;;;;18.71;30.32;99060.81;7310941;19;131103;-60
2021/12/10 03:53:41;;;;;;;3.42;0.60;;;;;;;18.69;30.00;99058.38;7313801;19;130621;-60
2021/12/10 03:56:15;;;;;;;2.75;0.90;;;;;;;18.69;30.25;99052.81;7311730;19;130802;-60
2021/12/10 03:58:45;;;;;;;3.97;0.88;;;;;;;18.68;29.93;99051.16;7313454;19;128798;-60
2021/12/10 04:01:15;;;;;;;2.60;1.15;;;;;;;18.68;29.98;99042.03;7314175;19;130963;-60
2021/12/10 04:03:43;;;;;;;2.97;0.95;;;;;;;18.66;30.40;99042.31;7312698;19;130788;-60
2021/12/10 04:06:11;;;;;;;4.18;1.00;;;;;;;18.65;29.93;99040.66;7314838;19;130850;-60
2021/12/10 04:08:38;;;;;;;1.45;0.73;;;;;;;18.64;30.05;99033.47;7309568;19;129454;-60
2021/12/10 04:11:07;;;;;;;2.88;0.90;;;;;;;18.64;30.07;99032.66;7314073;19;129073;-60
2021/12/10 04:13:35;;;;;;;2.35;0.90;;;;;;;18.63;30.09;99026.28;7312560;19;130556;-60
2021/12/10 04:16:03;;;;;;;2.88;1.02;;;;;;;18.61;30.45;99021.03;7312402;19;130625;-60
2021/12/10 04:18:31;;;;;;;3.25;1.02;;;;;;;18.61;30.20;99020.19;7310403;19;129666;-60
2021/12/10 04:20:58;;;;;;;2.90;0.77;;;;;;;18.60;30.52;99002.78;7310236;19;130171;-60
2021/12/10 04:23:25;;;;;;;2.00;0.85;;;;;;;18.59;30.14;98995.59;7312321;19;131621;-60
2021/12/10 04:25:52;;;;;;;2.47;0.90;;;;;;;18.59;30.21;98987.28;7311295;19;130888;-60
2021/12/10 04:28:21;;;;;;;1.50;0.65;;;;;;;18.58;30.40;98982.03;7314007;19;130347;-60
2021/12/10 04:30:48;;;;;;;2.05;0.70;;;;;;;18.57;30.11;98974.84;7309900;19;128829;-60
2021/12/10 04:33:18;;;;;;;3.50;1.08;;;;;;;18.55;30.58;98966.00;7313880;19;130708;-60
2021/12/10 04:35:46;;;;;;;2.58;0.80;;;;;;;18.56;30.25;98964.88;7310524;19;131464;-60
2021/12/10 04:38:15;;;;;;;2.10;1.02;;;;;;;18.54;30.52;98967.94;7313362;19;129359;-60
2021/12/10 04:40:47;;;;;;;2.78;0.80;;;;;;;18.54;30.42;98956.03;7309712;19;129043;-60
2021/12/10 04:43:15;;;;;;;3.85;0.90;;;;;;;18.54;30.11;98961.59;7310559;19;131267;-60
2021/12/10 04:45:42;;;;;;;1.60;0.70;;;;;;;18.53;30.21;98959.94;7312739;19;130669;-60
2021/12/10 04:48:09;;;;;;;1.55;0.73;;;;;;;18.52;30.17;98955.50;7309149;19;129003;-60
2021/12/10 04:50:36;;;;;;;2.20;0.90;;;;;;;18.51;30.36;98953.84;7313992;19;129269;-60
2021/12/10 04:53:08;;;;;;;2.58;0.93;;;;;;;18.51;30.40;98951.09;7308826;19;131818;-60
2021/12/10 04:55:34;;;;;;;2.08;0.80;;;;;;;18.51;30.52;98940.00;7311814;19;130739;-60
2021/12/10 04:58:03;;;;;;;1.65;0.68;;;;;;;18.51;30.60;98940.00;7309861;19;128897;-60
2021/12/10 05:00:44;;;;;;;1.27;0.50;;;;;;;18.51;30.31;98934.47;7310789;19;128654;-60
2021/12/10 05:03:12;;;;;;;1.92;0.70;;;;;;;18.50;30.46;98918.97;7312558;19;130558;-60
2021/12/10 05:05:41;;;;;;;2.85;1.00;;;;;;;18.49;30.15;98929.25;7310167;19;131144;-60
2021/12/10 05:08:09;;;;;;;2.88;0.90;;;;;;;18.49;30.27;98920.09;7312405;19;129083;-60
2021/12/10 05:10:36;;;;;;;1.67;0.80;;;;;;;18.48;30.69;98921.22;7309612;19;130419;-60
2021/12/10 05:13:03;;;;;;;2.25;0.70;;;;;;;18.48;30.48;98918.44;7312353;19;130519;-60
2021/12/10 05:15:34;;;;;;;1.52;0.73;;;;;;;18.48;30.47;98912.91;7308320;19;131370;-60
2021/12/10 05:18:01;;;;;;;1.45;0.60;;;;;;;18.49;30.67;98909.00;7310144;19;128990;-60
2021/12/10 05:20:36;;;;;;;1.80;0.70;;;;;;;18.49;30.65;98909.00;7309340;19;128954;-60
2021/12/10 05:23:03;;;;;;;2.25;0.88;;;;;;;18.49;30.76;98909.84;7310176;19;131198;-60
2021/12/10 05:25:30;;;;;;;2.35;0.70;;;;;;;18.50;30.33;98907.91;7309411;19;131200;-60
2021/12/10 05:27:58;;;;;;;1.23;0.60;;;;;;;18.50;30.79;98905.13;7310214;19;128970;-60
2021/12/10 05:30:29;;;;;;;1.95;0.70;;;;;;;18.50;30.66;98902.34;7310813;19;129584;-60
2021/12/10 05:32:57;;;;;;;1.52;0.80;;;;;;;18.50;30.64;98905.13;7313942;19;131203;-60
2021/12/10 05:35:24;;;;;;;1.33;0.70;;;;;;;18.50;30.77;98899.59;7318600;19;130549;-60
2021/12/10 05:37:51;;;;;;;1.63;0.60;;;;;;;18.51;30.87;98895.72;7316595;19;129094;-60
2021/12/10 05:40:19;;;;;;;2.30;0.65;;;;;;;18.49;30.48;98898.78;7316460;19;128906;-60
2021/12/10 05:42:47;;;;;;;1.35;0.50;;;;;;;18.51;30.67;98890.16;7314332;19;131270;-60
2021/12/10 05:45:16;;;;;;;1.70;0.57;;;;;;;18.50;30.85;98883.81;7315495;19;131254;-60
2021/12/10 05:47:44;;;;;;;3.03;1.13;;;;;;;18.50;30.76;98881.06;7318108;19;128988;-60
2021/12/10 05:50:13;;;;;;;2.15;0.63;;;;;;;18.50;30.72;98888.50;7314436;19;129559;-60
2021/12/10 05:52:40;;;;;;;1.48;0.50;;;;;;;18.50;30.86;98888.50;7318964;19;131292;-60
2021/12/10 05:55:08;;;;;;;1.65;0.52;;;;;;;18.49;30.55;98887.72;7313764;19;130694;-60
2021/12/10 05:57:35;;;;;;;3.08;0.77;;;;;;;18.48;31.05;98888.81;7311918;19;128970;-60
2021/12/10 06:00:11;;;;;;;1.75;0.77;;;;;;;18.49;30.92;98881.31;7314828;19;129554;-60
2021/12/10 06:02:38;;;;;;;1.95;0.50;;;;;;;18.45;30.80;98887.47;7315888;19;130497;-60
2021/12/10 06:05:07;;;;;;;3.42;0.75;;;;;;;18.46;30.94;98882.75;7318772;19;130566;-60
2021/12/10 06:07:35;;;;;;;2.22;0.70;;;;;;;18.45;30.69;98881.94;7316156;19;128827;-60
2021/12/10 06:10:04;;;;;;;2.13;0.50;;;;;;;18.45;30.93;98878.34;7316964;19;130442;-61
2021/12/10 06:12:30;;;;;;;1.27;0.70;;;;;;;18.45;30.88;98883.88;7313474;19;130719;-60
2021/12/10 06:14:57;;;;;;;2.95;0.50;;;;;;;18.43;30.78;98878.63;7317071;19;130418;-60
2021/12/10 06:17:24;;;;;;;1.90;0.70;;;;;;;18.43;31.06;98862.03;7310739;19;130142;-60
2021/12/10 06:19:51;;;;;;;3.58;0.50;;;;;;;18.43;31.12;98864.78;7314876;19;128859;-60
2021/12/10 06:22:18;;;;;;;3.00;0.60;;;;;;;18.42;31.06;98860.38;7314542;19;130695;-60
2021/12/10 06:24:44;;;;;;;1.38;0.60;;;;;;;18.45;30.65;98864.50;7315847;19;130599;-60
2021/12/10 06:27:11;;;;;;;1.27;0.60;;;;;;;18.50;31.18;98860.81;7316613;19;128820;-60
2021/12/10 06:29:41;;;;;;;4.65;0.65;;;;;;;18.55;30.89;98858.00;7312966;19;129062;-60
2021/12/10 06:32:09;;;;;;;5.05;0.50;;;;;;;18.64;30.44;98856.22;7310276;19;130428;-60
2021/12/10 06:34:37;;;;;;;2.20;0.60;;;;;;;18.76;30.56;98853.84;7309447;19;132106;-60
2021/12/10 06:37:05;;;;;;;3.05;0.50;;;;;;;18.91;30.53;98860.28;7313618;19;128862;-60
2021/12/10 06:39:33;;;;;;;1.75;0.60;;;;;;;19.12;29.91;98863.59;7308377;19;129257;-60
2021/12/10 06:42:00;;;;;;;0.70;0.40;;;;;;;19.36;29.82;98857.19;7313921;19;131244;-60
2021/12/10 06:44:27;;;;;;;3.38;0.50;;;;;;;19.60;29.66;98848.72;7312653;19;133517;-60
2021/12/10 06:46:54;;;;;;;3.17;0.60;;;;;;;19.86;29.60;98864.09;7314564;19;133232;-60
2021/12/10 06:49:22;;;;;;;3.30;0.60;;;;;;;20.10;29.30;98866.72;7315669;19;132025;-60
2021/12/10 06:51:48;;;;;;;2.47;0.80;;;;;;;20.32;28.91;98867.97;7310615;19;131755;-60
2021/12/10 06:54:15;;;;;;;5.18;0.55;;;;;;;20.48;29.31;98863.78;7315790;19;131357;-60
2021/12/10 06:56:42;;;;;;;1.67;0.65;;;;;;;20.63;28.48;98870.16;7312969;19;128987;-60
2021/12/10 06:59:09;;;;;;;1.67;0.60;;;;;;;20.71;28.74;98864.69;7317521;19;128994;-60
2021/12/10 07:01:39;;;;;;;2.17;0.73;;;;;;;20.77;28.66;98862.66;7310327;19;130526;-60
2021/12/10 07:04:11;;;;;;;2.38;0.80;;;;;;;20.80;28.44;98861.19;7314698;19;131092;-60
2021/12/10 07:06:42;;;;;;;3.88;0.40;;;;;;;20.81;28.57;98866.44;7313919;19;128750;-60
2021/12/10 07:09:19;;;;;;;3.00;0.57;;;;;;;20.80;28.57;98863.97;7315127;19;129108;-60
2021/12/10 07:11:46;;;;;;;;;;;;;;;20.74;28.28;98863.25;7317343;19;131217;-60
2021/12/10 07:14:13;;;;;;;1.05;0.45;;;;;;;20.72;28.43;98868.28;7313995;19;131000;-60
2021/12/10 07:16:40;;;;;;;2.22;0.80;;;;;;;20.66;28.60;98864.78;7316285;19;128803;-60
2021/12/10 07:19:07;;;;;;;4.60;0.52;;;;;;;20.59;28.75;98867.97;7313537;19;129620;-60
2021/12/10 07:21:35;;;;;;;1.58;0.50;;;;;;;20.52;28.33;98867.59;7315409;19;130831;-60
2021/12/10 07:24:06;;;;;;;2.10;0.60;;;;;;;20.47;29.04;98864.91;7313561;19;130364;-60
2021/12/10 07:26:34;;;;;;;2.88;0.77;;;;;;;20.41;28.53;98864.19;7314973;19;128974;-60
2021/12/10 07:29:02;;;;;;;2.45;0.60;;;;;;;20.35;29.04;98870.16;7310433;19;128920;-61
2021/12/10 07:31:29;;;;;;;1.33;0.40;;;;;;;20.27;29.02;98866.97;7312529;19;131394;-60
2021/12/10 07:33:55;;;;;;;1.70;0.45;;;;;;;20.20;29.23;98866.53;7314770;19;131183;-61
2021/12/10 07:36:23;;;;;;;2.80;0.65;;;;;;;20.15;29.17;98874.97;7313380;19;129058;-61
2021/12/10 07:38:51;;;;;;;1.48;0.57;;;;;;;20.10;29.08;98869.50;7313209;19;130487;-60
2021/12/10 07:41:18;;;;;;;1.75;0.60;;;;;;;20.03;29.31;98872.69;7310576;19;131167;-60
2021/12/10 07:43:45;;;;;;;1.98;0.50;;;;;;;20.01;29.36;98874.13;7313379;19;130667;-61
2021/12/10 07:46:14;;;;;;;1.60;0.55;;;;;;;19.94;29.48;98868.94;7311843;19;129078;-60
2021/12/10 07:48:43;;;;;;;3.80;0.52;;;;;;;19.87;29.15;98874.91;7314721;19;129784;-60
2021/12/10 07:51:25;;;;;;;3.97;0.70;;;;;;;19.83;29.51;98871.06;7311755;19;130965;-60
2021/12/10 07:53:57;;;;;;;1.73;0.50;;;;;;;19.77;29.59;98881.44;7309145;19;130375;-60
2021/12/10 07:56:26;;;;;;;3.42;0.70;;;;;;;19.73;29.75;98879.56;7315140;19;128971;-60
2021/12/10 07:58:54;;;;;;;1.58;0.60;;;;;;;19.66;29.59;98880.81;7310909;19;129507;-60
2021/12/10 08:01:25;;;;;;;4.20;0.70;;;;;;;19.61;29.69;98886.44;7313624;19;132023;-61
2021/12/10 08:03:53;;;;;;;3.05;0.77;;;;;;;19.59;29.92;98885.91;7312213;19;131358;-60
2021/12/10 08:06:21;;;;;;;1.98;0.60;;;;;;;19.60;29.67;98884.78;7314873;19;128982;-60
2021/12/10 08:08:49;;;;;;;3.03;0.60;;;;;;;19.66;29.98;98885.50;7304544;19;128950;-61
2021/12/10 08:11:18;;;;;;;2.03;0.50;;;;;;;19.73;30.07;98885.13;7309708;19;130652;-61
2021/12/10 08:13:46;;;;;;;1.70;0.60;;;;;;;19.82;29.79;98884.13;7311949;19;130534;-60
2021/12/10 08:16:12;;;;;;;2.47;0.88;;;;;;;19.94;29.59;98880.84;7309770;19;128961;-60
2021/12/10 08:18:40;;;;;;;1.98;0.65;;;;;;;20.04;29.85;98879.88;7310592;19;129045;-60
2021/12/10 08:21:07;;;;;;;3.08;0.60;;;;;;;20.14;30.10;98885.25;7306819;19;131180;-60
2021/12/10 08:23:36;;;;;;;2.20;0.55;;;;;;;20.24;29.93;98880.66;7312083;19;131945;-61
2021/12/10 08:26:04;;;;;;;2.30;0.60;;;;;;;20.34;29.85;98887.94;7308030;19;128976;-60
2021/12/10 08:28:33;;;;;;;5.50;0.65;;;;;;;20.40;29.60;98867.28;7311655;19;130117;-60
2021/12/10 08:31:03;;;;;;;9.00;0.70;;;;;;;20.48;29.44;98872.09;7306945;19;130832;-60
2021/12/10 08:33:30;;;;;;;4.65;0.50;;;;;;;20.56;29.39;98874.16;7313904;19;131425;-60
2021/12/10 08:36:01;;;;;;;2.50;0.70;;;;;;;20.64;29.14;98880.13;7312960;19;129452;-61
2021/12/10 08:38:30;;;;;;;2.13;0.60;;;;;;;20.71;28.81;98875.81;7307654;19;128965;-61
2021/12/10 08:41:02;;;;;;;5.57;0.60;;;;;;;20.78;28.69;98878.19;7308178;19;130769;-60
2021/12/10 08:43:29;;;;;;;4.32;0.55;;;;;;;20.82;28.69;98873.63;7306013;19;130533;-61
2021/12/10 08:45:59;;;;;;;2.65;0.50;;;;;;;20.87;28.58;98883.81;7313270;19;129349;-61
2021/12/10 08:48:28;;;;;;;3.42;0.50;;;;;;;20.93;28.57;98870.63;7308510;19;129419;-60
2021/12/10 08:50:58;;;;;;;4.90;0.80;;;;;;;20.96;28.52;98875.56;7306286;19;130430;-61
2021/12/10 08:53:25;;;;;;;3.35;0.52;;;;;;;21.01;28.60;98875.47;7308195;19;131236;-60
2021/12/10 08:55:54;;;;;;;1.52;0.57;;;;;;;21.05;28.63;98879.25;7312611;19;128856;-61
2021/12/10 08:58:21;;;;;;;3.15;0.70;;;;;;;21.08;28.38;98884.19;7307321;19;128943;-61
2021/12/10 09:00:56;;;;;;;2.63;0.60;;;;;;;21.10;28.71;98881.94;7313653;19;131665;-61
2021/12/10 09:03:41;;;;;;;2.67;0.50;;;;;;;21.13;28.53;98884.09;7309981;19;130481;-61
2021/12/10 09:06:10;;;;;;;2.42;0.63;;;;;;;21.13;28.56;98875.75;7311020;19;128852;-60
2021/12/10 09:08:38;;;;;;;11.88;1.15;;;;;;;21.13;28.66;98881.31;7316792;19;129089;-61
2021/12/10 09:11:08;;;;;;;8.65;0.80;;;;;;;21.11;28.81;98883.56;7316847;19;130364;-61
2021/12/10 09:13:35;;;;;;;2.40;0.88;;;;;;;21.09;28.83;98888.63;7317616;19;131289;-61
2021/12/10 09:16:06;;;;;;;2.22;0.70;;;;;;;21.05;28.52;98898.72;7311809;19;128945;-61
2021/12/10 09:18:38;;;;;;;5.20;0.75;;;;;;;20.99;29.14;98894.41;7314296;19;129567;-61
2021/12/10 09:21:08;;;;;;;2.67;0.73;;;;;;;20.89;29.16;98890.72;7309886;19;130567;-61
2021/12/10 09:23:35;;;;;;;2.22;0.80;;;;;;;20.82;29.15;98892.28;7314538;19;131168;-61
2021/12/10 09:26:06;;;;;;;3.80;0.60;;;;;;;20.75;29.02;98901.00;7317025;19;128941;-61
2021/12/10 09:28:34;;;;;;;2.60;0.60;;;;;;;20.68;29.52;98897.81;7318731;19;128812;-61
2021/12/10 09:31:03;;;;;;;4.68;1.13;;;;;;;20.60;29.40;98908.53;7316871;19;131414;-61
2021/12/10 09:33:30;;;;;;;6.60;0.80;;;;;;;20.54;29.61;98918.09;7318416;19;130725;-61
2021/12/10 09:35:57;;;;;;;3.10;0.80;;;;;;;20.47;29.68;98914.91;7317279;19;128876;-61
2021/12/10 09:38:25;;;;;;;3.03;0.82;;;;;;;20.43;29.83;98922.22;7316111;19;134385;-60
2021/12/10 09:40:56;;;;;;;4.32;1.00;;;;;;;20.37;29.94;98932.56;7318865;19;130575;-60
2021/12/10 09:43:24;;;;;;;2.60;0.85;;;;;;;20.31;29.61;98928.25;7317539;19;131362;-60
2021/12/10 09:45:52;;;;;;;2.75;0.90;;;;;;;20.26;29.95;98931.13;7320281;19;129578;-61
2021/12/10 09:48:20;;;;;;;2.05;0.70;;;;;;;20.20;29.99;98933.16;7316013;19;129239;-60
2021/12/10 09:51:19;;;;;;;5.60;0.98;;;;;;;20.17;29.87;98933.81;7319508;19;130666;-61
2021/12/10 09:53:49;;;;;;;4.57;0.77;;;;;;;20.11;30.36;98929.44;7316410;19;131210;-61
2021/12/10 09:56:17;;;;;;;4.40;1.00;;;;;;;20.06;29.98;98937.88;7316222;19;130888;-61
2021/12/10 09:58:48;;;;;;;3.95;0.95;;;;;;;20.03;30.15;98944.03;7314950;19;129067;-60
2021/12/10 10:01:19;;;;;;;1.85;0.80;;;;;;;19.97;30.30;98938.53;7315406;19;131205;-61
2021/12/10 10:03:50;;;;;;;2.70;1.00;;;;;;;19.94;30.04;98953.00;7319666;19;130960;-60
2021/12/10 10:06:19;;;;;;;3.70;1.30;;;;;;;19.89;30.45;98947.56;7314956;19;129078;-61
2021/12/10 10:08:46;;;;;;;2.40;0.70;;;;;;;19.87;30.45;98941.50;7314936;19;130456;-60
2021/12/10 10:11:32;;;;;;;2.67;1.02;;;;;;;19.83;30.64;98940.44;7311680;19;130603;-60
2021/12/10 10:14:00;;;;;;;4.60;0.65;;;;;;;19.82;30.16;98952.66;7316446;19;130652;-60
2021/12/10 10:16:29;;;;;;;2.53;0.63;;;;;;;19.83;30.20;98955.16;7313979;19;129589;-61
2021/12/10 10:18:57;;;;;;;1.77;0.80;;;;;;;19.87;30.38;98952.59;7314677;19;128870;-60
2021/12/10 10:21:29;;;;;;;3.15;1.00;;;;;;;20.01;30.71;98962.94;7314989;19;130165;-61
2021/12/10 10:23:56;;;;;;;3.03;0.98;;;;;;;20.16;30.57;98954.34;7315269;19;130463;-61
2021/12/10 10:26:32;;;;;;;2.08;0.80;;;;;;;20.38;30.00;98955.63;7317103;19;131075;-61
2021/12/10 10:29:03;;;;;;;1.45;0.68;;;;;;;20.58;29.78;98958.00;7313354;19;130784;-61
2021/12/10 10:31:32;;;;;;;5.50;0.82;;;;;;;20.81;29.88;98954.56;7317076;19;131293;-61
2021/12/10 10:34:00;;;;;;;2.47;0.75;;;;;;;21.01;29.55;98953.31;7313032;19;130510;-61
2021/12/10 10:36:32;;;;;;;3.10;1.15;;;;;;;21.23;29.37;98949.78;7316543;19;128988;-61
2021/12/10 10:39:14;;;;;;;5.10;0.80;;;;;;;21.40;29.09;98954.69;7314387;19;130995;-61
2021/12/10 10:41:50;;;;;;;3.30;0.88;;;;;;;21.54;29.13;98962.19;7315575;19;131403;-60
2021/12/10 10:44:17;;;;;;;3.47;0.80;;;;;;;21.62;29.12;98959.47;7312825;19;130796;-61
2021/12/10 10:46:48;;;;;;;4.40;0.73;;;;;;;21.67;29.04;98961.28;7314301;19;130289;-61
2021/12/10 10:49:44;;;;;;;5.10;0.80;;;;;;;21.70;28.83;98968.22;7316691;19;129865;-61
2021/12/10 10:52:31;;;;;;;6.47;1.15;;;;;;;21.69;28.45;98964.59;7313475;19;131169;-61
2021/12/10 10:55:15;;;;;;;1.65;0.70;;;;;;;21.64;29.09;98967.53;7313357;19;131732;-60
2021/12/10 10:57:56;;;;;;;3.30;0.68;;;;;;;21.58;29.32;98971.53;7314074;19;129273;-61
2021/12/10 11:00:34;;;;;;;3.42;0.82;;;;;;;21.49;28.77;98971.47;7310351;19;129249;-61
2021/12/10 11:03:10;;;;;;;2.60;0.73;;;;;;;21.40;29.21;98971.38;7313835;19;131090;-60
2021/12/10 11:05:49;;;;;;;4.28;1.30;;;;;;;21.33;29.39;98968.19;7310521;19;131337;-60
2021/12/10 11:09:00;;;;;;;2.30;0.70;;;;;;;21.23;29.55;98969.25;7315534;19;128893;-61
2021/12/10 11:11:34;;;;;;;3.95;0.70;;;;;;;21.12;29.30;98974.19;7310847;19;130776;-60
2021/12/10 11:14:16;;;;;;;4.13;0.75;;;;;;;21.05;29.59;98982.13;7312058;19;131016;-60
2021/12/10 11:16:46;;;;;;;0.88;0.57;;;;;;;20.99;29.53;98986.16;7316955;19;130585;-61
2021/12/10 11:19:17;;;;;;;1.70;0.60;;;;;;;20.94;29.64;98989.03;7313366;19;128954;-61
2021/12/10 11:21:49;;;;;;;1.67;0.80;;;;;;;20.89;29.58;98992.72;7314888;19;128943;-61
2021/12/10 11:24:34;;;;;;;1.30;0.63;;;;;;;20.88;29.53;98985.53;7311639;19;132579;-61
2021/12/10 11:27:09;;;;;;;3.67;0.80;;;;;;;20.88;29.96;98993.84;7313637;19;131343;-61
2021/12/10 11:30:04;;;;;;;2.85;0.70;;;;;;;20.90;29.52;98988.81;7310804;19;129275;-61
2021/12/10 11:32:34;;;;;;;3.75;0.60;;;;;;;20.93;29.98;98998.50;7312482;19;131238;-62
2021/12/10 11:35:01;;;;;;;2.00;0.82;;;;;;;20.97;29.55;98996.75;7315840;19;132021;-60
2021/12/10 11:37:42;;;;;;;2.58;0.70;;;;;;;21.03;29.87;99003.88;7313665;19;130574;-61
2021/12/10 11:40:41;;;;;;;1.63;0.70;;;;;;;21.05;29.64;98996.00;7312258;19;129307;-61
2021/12/10 11:43:21;;;;;;;3.47;0.90;;;;;;;21.09;29.87;99008.16;7315750;19;128861;-61
2021/12/10 11:48:40;;;;;;;4.43;0.93;;;;;;;21.27;29.78;99005.59;7313770;19;131333;-60
2021/12/10 11:51:11;;;;;;;2.65;0.75;;;;;;;21.38;29.45;99004.22;7311559;19;128864;-60
2021/12/10 11:53:52;;;;;;;1.67;0.60;;;;;;;21.54;29.14;99006.72;7313440;19;130934;-61
2021/12/10 11:56:27;;;;;;;1.30;0.73;;;;;;;21.68;28.93;99004.69;7314998;19;131310;-61